Weather at Goldsboro-Wayne Municipal Airport

Public forecast

Using degrees Fahrenheit for public forecast. Weather courtesy of forecast.io.

Current aviation weather report (METAR) for Goldsboro-Wayne Municipal Airport

Report is more than 6 hours old.

2022/11/14 15:35 (retrieved 2 years ago)

KGWW 141535Z AUTO 03009KT 360V060 10SM CLR 09/M01 A3040 RMK AO2 T00901009

Closest aviation forecast (TAF) to Goldsboro-Wayne Municipal Airport

Forecast is more than 12 hours old.

Closest forecast is Seymour Johnson Air Force Base, 7.3 nm (13.5 km) S.

2023/02/22 13:09 (retrieved 1 year ago)

TAF KGSB 221300Z 2213/2319 04004KT 9999 SCT075 BKN100 QNH3001INS BECMG 2217/2218 20010G20KT 9999 SCT035 BKN055 BKN250 QNH3000INS BECMG 2301/2302 19010KT 9999 BKN045 QNH2999INS BECMG 2308/2309 21012KT 9999 SCT020 BKN035 QNH2997INS BECMG 2314/2315 22020G30KT 9999 BKN035 510003 QNH3001INS TX27/2221Z TN10/2213Z